Thorndike, ME (04986)

6:55 PM EDT on March 26, 2015 (GMT -0400)
Hopkins Road | | Change Station
CLOSE
Current Station
Personal Weather Station
Location: Plymouth, ME
Elevation: 341 ft
Nearby Weather Stations
Active Advisory: Dense Fog Advisory

Elev 341 ft 44.74 °N, 69.17 °W | Updated 33 seconds ago

Overcast
Overcast
39.6 °F
Feels Like 40 °F
N
0.0
Wind Variable Wind from North
Gusts 0.0 mph

Today
High -- | Low -- °F
--% Chance of Precip.
Yesterday
High -- | Low -- °F
Precip. -- in
6:29 AM 6:56 PM
Waxing Crescent, 46% visible
Pressure 29.65 in
Visibility 4.0 miles
Clouds Scattered Clouds 3500 ft
Overcast 5000 ft
Windchill 40 °F
Dew Point 38 °F
Humidity 94%
Rainfall 0.00 in
Snow Depth Not available.
UV 0 out of 12
Pollen 2.50 out of 12
Air Quality Not available.
Flu Activity Not available.
METAR KWVL 262235Z 01005KT 4SM SCT035 OVC050 05/03 A2965 RMK AO1 P0001

More Conditions Fewer Conditions

Pressure 29.65 in
Visibility 4.0 miles
Clouds Scattered Clouds 3500 ft
Overcast 5000 ft
Windchill 40 °F
Dew Point 38 °F
Humidity 94%
Rainfall 0.00 in
Snow Depth Not available.
UV 0 out of 12
Pollen 2.50 out of 12
Air Quality Not available.
Flu Activity Not available.
METAR KWVL 262235Z 01005KT 4SM SCT035 OVC050 05/03 A2965 RMK AO1 P0001

More Conditions Fewer Conditions

10-Day Weather Forecast

Almanac

Astronomy

Mar. 26, 2015 Rise Set
Actual Time
Civil Twilight
Nautical Twilight
Astronomical Twilight
Moon
Length of Visible Light
Length of Day
Tomorrow will be .
, % of the Moon is Illuminated

Today's Extremes

State Highs State Lows

Community

WunderPhotos

Upload Photos

1,808,629 photos uploaded!

WunderBlogs® & News

Nearby

Air Quality

  Air Quality AQ Index Pollutant
Not available.

Snow Depth

Station Depth Elevation

Earthquake Activity

City Distance Mag. Time & Date
Minimum magnitude displayed is 2.5.

Coastal Water Temperatures

Place Temperature

Stations

Nearby Weather Stations

Station Location Temp. Windchill Dew Point Humidity Wind Precip. Elev Updated Type
                   
Dense Fog Advisory
Statement as of 6:53 PM EDT on March 26, 2015

... Dense fog advisory in effect until 11 PM EDT this evening...

The National Weather Service in gray has issued a dense fog
advisory... which is in effect until 11 PM EDT this evening.

* Visibilities... one quarter mile or less at times.

* Timing... through late this evening.

* Impacts... travel will be difficult tonight.

Precautionary/preparedness actions...

A dense fog advisory means visibilities will frequently be
reduced to less than one quarter mile. If driving... slow down...
use your headlights... and leave plenty of distance ahead of you.